createdAt,value
2018-02-19T00:00:20.815Z,5.90
2018-02-19T00:00:55.252Z,6.07
2018-02-19T00:01:28.929Z,6.60
2018-02-19T00:02:02.599Z,6.80
2018-02-19T00:02:37.026Z,6.72
2018-02-19T00:03:10.682Z,6.43
2018-02-19T00:03:44.343Z,6.35
2018-02-19T00:04:17.995Z,6.30
2018-02-19T00:04:51.470Z,6.50
2018-02-19T00:05:25.932Z,6.80
2018-02-19T00:05:59.614Z,7.00
2018-02-19T00:06:33.297Z,6.85
2018-02-19T00:07:06.950Z,6.62
2018-02-19T00:07:41.370Z,6.40
2018-02-19T00:08:15.045Z,6.57
2018-02-19T00:08:49.484Z,6.85
2018-02-19T00:09:23.151Z,6.87
2018-02-19T00:09:56.815Z,6.03
2018-02-19T00:10:31.286Z,6.80
2018-02-19T00:11:04.960Z,6.60
2018-02-19T00:11:38.621Z,7.07
2018-02-19T00:12:13.059Z,7.03
2018-02-19T00:12:46.723Z,8.15
2018-02-19T00:13:20.388Z,6.60
2018-02-19T00:13:54.815Z,7.30
2018-02-19T00:14:28.483Z,6.78
2018-02-19T00:15:02.873Z,7.07
2018-02-19T00:15:36.564Z,7.57
2018-02-19T00:16:10.226Z,6.78
2018-02-19T00:16:43.887Z,7.35
2018-02-19T00:17:17.550Z,6.93
2018-02-19T00:17:51.798Z,6.32
2018-02-19T00:18:25.468Z,6.80
2018-02-19T00:18:59.125Z,6.68
2018-02-19T00:19:32.783Z,7.93
2018-02-19T00:20:06.438Z,7.43
2018-02-19T00:20:40.201Z,6.78
2018-02-19T00:21:14.623Z,7.37
2018-02-19T00:21:49.063Z,6.97
2018-02-19T00:22:22.555Z,7.78
2018-02-19T00:22:56.213Z,6.57
2018-02-19T00:23:29.873Z,7.78
2018-02-19T00:24:04.302Z,7.25
2018-02-19T00:24:37.958Z,8.15
2018-02-19T00:25:11.626Z,8.50
2018-02-19T00:25:45.325Z,7.28
2018-02-19T00:26:18.993Z,7.80
2018-02-19T00:26:52.654Z,8.15
2018-02-19T00:27:26.303Z,7.47
2018-02-19T00:27:59.964Z,8.10
2018-02-19T00:28:33.631Z,7.40
2018-02-19T00:29:07.306Z,7.40
2018-02-19T00:29:41.739Z,7.78
2018-02-19T00:30:15.410Z,7.72
2018-02-19T00:30:49.132Z,7.55
2018-02-19T00:31:22.800Z,8.48
2018-02-19T00:31:56.467Z,8.43
2018-02-19T00:32:30.931Z,7.80
2018-02-19T00:33:04.598Z,8.07
2018-02-19T00:33:38.253Z,7.80
2018-02-19T00:34:12.673Z,7.75
2018-02-19T00:34:46.388Z,7.75
2018-02-19T00:35:20.104Z,7.15
2018-02-19T00:35:53.802Z,8.10
2018-02-19T00:36:27.460Z,7.90
2018-02-19T00:37:01.139Z,7.70
2018-02-19T00:37:34.800Z,7.82
2018-02-19T00:38:09.240Z,6.97
2018-02-19T00:38:42.910Z,8.18
2018-02-19T00:39:16.583Z,8.00
2018-02-19T00:39:51.023Z,7.37
2018-02-19T00:40:24.688Z,7.82
2018-02-19T00:40:58.411Z,7.55
2018-02-19T00:41:32.070Z,8.02
2018-02-19T00:42:05.751Z,8.48
2018-02-19T00:42:40.249Z,8.88
2018-02-19T00:43:14.676Z,8.13
2018-02-19T00:43:48.350Z,8.50
2018-02-19T00:44:22.777Z,8.90
2018-02-19T00:44:56.446Z,8.68
2018-02-19T00:45:30.881Z,9.32
2018-02-19T00:46:04.591Z,8.35
2018-02-19T00:46:38.252Z,8.25
2018-02-19T00:47:11.918Z,8.35
2018-02-19T00:47:46.351Z,8.00
2018-02-19T00:48:20.013Z,8.30
2018-02-19T00:48:54.438Z,8.52
2018-02-19T00:49:28.122Z,7.72
2018-02-19T00:50:02.559Z,8.82
2018-02-19T00:50:36.223Z,7.65
2018-02-19T00:51:09.911Z,8.05
2018-02-19T00:51:44.342Z,8.05
2018-02-19T00:52:18.007Z,7.60
2018-02-19T00:52:52.479Z,8.13
2018-02-19T00:53:26.133Z,8.25
2018-02-19T00:53:59.791Z,8.02
2018-02-19T00:54:34.226Z,8.35
2018-02-19T00:55:07.890Z,7.78
2018-02-19T00:55:42.401Z,8.35
2018-02-19T00:56:16.087Z,8.20
2018-02-19T00:56:50.511Z,8.25
2018-02-19T00:57:24.170Z,8.85
2018-02-19T00:57:58.603Z,8.60
2018-02-19T00:58:32.268Z,8.40
2018-02-19T00:59:06.703Z,8.63
2018-02-19T00:59:40.375Z,8.75
2018-02-19T01:00:14.812Z,9.00
2018-02-19T01:00:48.474Z,8.60
2018-02-19T01:01:22.935Z,8.55
2018-02-19T01:01:56.614Z,8.52
2018-02-19T01:02:30.284Z,9.10
2018-02-19T01:03:03.958Z,8.75
2018-02-19T01:03:37.618Z,8.35
2018-02-19T01:04:11.275Z,8.38
2018-02-19T01:04:44.943Z,8.65
2018-02-19T01:05:18.615Z,9.82
2018-02-19T01:05:52.274Z,8.55
2018-02-19T01:06:25.786Z,8.85
2018-02-19T01:06:59.453Z,8.95
2018-02-19T01:07:33.902Z,8.48
2018-02-19T01:08:07.559Z,8.82
2018-02-19T01:08:41.996Z,8.52
2018-02-19T01:09:15.658Z,8.55
2018-02-19T01:09:50.094Z,8.95
2018-02-19T01:10:23.754Z,8.95
2018-02-19T01:10:58.182Z,8.85
2018-02-19T01:11:31.897Z,9.35
2018-02-19T01:12:05.571Z,8.63
2018-02-19T01:12:39.232Z,9.68
2018-02-19T01:13:13.659Z,9.15
2018-02-19T01:13:47.326Z,9.13
2018-02-19T01:14:21.768Z,8.68
2018-02-19T01:14:55.422Z,8.88
2018-02-19T01:15:30.098Z,9.55
2018-02-19T01:16:03.769Z,9.23
2018-02-19T01:16:37.463Z,9.50
2018-02-19T01:17:11.138Z,9.82
2018-02-19T01:17:44.811Z,10.13
2018-02-19T01:18:18.466Z,9.52
2018-02-19T01:18:52.138Z,9.70
2018-02-19T01:19:25.811Z,9.40
2018-02-19T01:19:59.526Z,10.18
2018-02-19T01:20:33.185Z,9.93
2018-02-19T01:21:06.862Z,9.95
2018-02-19T01:21:40.571Z,9.73
2018-02-19T01:22:14.255Z,9.70
2018-02-19T01:22:47.915Z,9.65
2018-02-19T01:23:21.602Z,9.82
2018-02-19T01:23:55.275Z,9.10
2018-02-19T01:24:29.702Z,9.25
2018-02-19T01:25:03.381Z,10.45
2018-02-19T01:25:37.825Z,9.73
2018-02-19T01:26:11.498Z,9.30
2018-02-19T01:26:45.193Z,9.82
2018-02-19T01:27:18.861Z,9.20
2018-02-19T01:27:53.302Z,9.18
2018-02-19T01:28:26.958Z,9.25
2018-02-19T01:29:00.638Z,10.48
2018-02-19T01:29:35.079Z,10.88
2018-02-19T01:30:08.753Z,10.10
2018-02-19T01:30:42.426Z,9.20
2018-02-19T01:31:16.874Z,10.02
2018-02-19T01:31:50.562Z,9.35
2018-02-19T01:32:24.228Z,10.13
2018-02-19T01:32:57.908Z,10.27
2018-02-19T01:33:32.407Z,10.57
2018-02-19T01:34:06.854Z,10.63
2018-02-19T01:34:40.532Z,9.07
2018-02-19T01:35:14.200Z,9.07
2018-02-19T01:35:48.644Z,9.43
2018-02-19T01:36:22.309Z,8.65
2018-02-19T01:36:56.022Z,9.55
2018-02-19T01:37:29.688Z,10.07
2018-02-19T01:38:03.363Z,9.50
2018-02-19T01:38:37.806Z,9.50
2018-02-19T01:39:11.483Z,10.68
2018-02-19T01:39:45.154Z,8.65
2018-02-19T01:40:19.582Z,9.57
2018-02-19T01:40:53.264Z,10.38
2018-02-19T01:41:26.922Z,9.88
2018-02-19T01:42:00.602Z,9.18
2018-02-19T01:42:34.259Z,9.75
2018-02-19T01:43:07.943Z,10.30
2018-02-19T01:43:41.604Z,9.80
2018-02-19T01:44:16.038Z,9.40
2018-02-19T01:44:49.721Z,9.48
2018-02-19T01:45:23.386Z,9.82
2018-02-19T01:45:57.823Z,9.65
2018-02-19T01:46:31.490Z,9.10
2018-02-19T01:47:05.479Z,9.48
2018-02-19T01:47:39.923Z,9.90
2018-02-19T01:48:13.600Z,9.88
2018-02-19T01:48:47.272Z,9.30
2018-02-19T01:49:20.943Z,9.52
2018-02-19T01:50:06.575Z,9.35
2018-02-19T01:50:40.245Z,9.15
2018-02-19T01:51:13.917Z,9.07
2018-02-19T01:51:47.599Z,9.82
2018-02-19T01:52:21.288Z,8.95
2018-02-19T01:52:55.731Z,9.15
2018-02-19T01:53:29.407Z,9.80
2018-02-19T01:54:03.074Z,9.82
2018-02-19T01:54:36.748Z,10.00
2018-02-19T01:55:11.224Z,9.43
2018-02-19T01:55:44.885Z,8.65
2018-02-19T01:56:18.558Z,10.18
2018-02-19T01:56:52.251Z,9.73
2018-02-19T01:57:25.947Z,9.68
2018-02-19T01:57:59.642Z,9.50
2018-02-19T01:58:33.309Z,9.15
2018-02-19T01:59:07.008Z,10.25
2018-02-19T01:59:40.676Z,9.32
2018-02-19T02:00:15.118Z,10.70
2018-02-19T02:00:48.783Z,9.82
2018-02-19T02:01:23.248Z,9.68
2018-02-19T02:01:56.910Z,10.00
2018-02-19T02:02:30.603Z,9.05
2018-02-19T02:03:04.276Z,8.90
2018-02-19T02:03:37.938Z,10.40
2018-02-19T02:04:12.379Z,10.25
2018-02-19T02:04:46.061Z,9.13
2018-02-19T02:05:19.722Z,9.30
2018-02-19T02:05:54.165Z,10.02
2018-02-19T02:06:27.848Z,10.57
2018-02-19T02:07:01.509Z,8.82
2018-02-19T02:07:35.991Z,9.80
2018-02-19T02:08:09.325Z,8.80
2018-02-19T02:08:42.992Z,8.10
2018-02-19T02:09:17.421Z,9.32
2018-02-19T02:09:51.085Z,8.85
2018-02-19T02:10:24.748Z,8.65
2018-02-19T02:10:58.500Z,8.70
2018-02-19T02:11:32.156Z,8.88
2018-02-19T02:12:06.588Z,9.43
2018-02-19T02:12:40.562Z,8.90
2018-02-19T02:13:14.990Z,9.40
2018-02-19T02:13:48.650Z,9.20
2018-02-19T02:14:22.309Z,9.52
2018-02-19T02:14:55.966Z,9.05
2018-02-19T02:15:29.645Z,8.80
2018-02-19T02:16:03.309Z,8.85
2018-02-19T02:16:37.747Z,10.07
2018-02-19T02:17:11.399Z,9.00
2018-02-19T02:17:45.077Z,8.43
2018-02-19T02:18:19.528Z,9.23
2018-02-19T02:18:53.204Z,8.15
2018-02-19T02:19:27.627Z,8.98
2018-02-19T02:20:01.302Z,8.30
2018-02-19T02:20:35.737Z,9.32
2018-02-19T02:21:09.454Z,9.15
2018-02-19T02:21:44.034Z,9.35
2018-02-19T02:22:17.690Z,8.35
2018-02-19T02:22:52.159Z,9.68
2018-02-19T02:23:25.820Z,8.98
2018-02-19T02:23:59.481Z,9.50
2018-02-19T02:24:33.962Z,8.90
2018-02-19T02:25:07.638Z,9.27
2018-02-19T02:25:41.726Z,8.55
2018-02-19T02:26:15.390Z,9.02
2018-02-19T02:26:49.071Z,8.93
2018-02-19T02:27:22.738Z,8.80
2018-02-19T02:27:56.419Z,8.85
2018-02-19T02:28:30.083Z,8.63
2018-02-19T02:29:03.769Z,9.38
2018-02-19T02:29:37.434Z,9.55
2018-02-19T02:30:11.106Z,9.32
2018-02-19T02:30:44.766Z,9.57
2018-02-19T02:31:18.424Z,9.07
2018-02-19T02:31:52.115Z,9.38
2018-02-19T02:32:25.792Z,10.35
2018-02-19T02:32:59.491Z,9.45
2018-02-19T02:33:33.179Z,9.43
2018-02-19T02:34:06.833Z,9.43
2018-02-19T02:34:41.265Z,8.70
2018-02-19T02:35:14.931Z,8.85
2018-02-19T02:35:48.587Z,9.57
2018-02-19T02:36:22.259Z,9.63
2018-02-19T02:36:55.934Z,9.30
2018-02-19T02:37:29.610Z,9.25
2018-02-19T02:38:02.975Z,9.48
2018-02-19T02:38:36.630Z,8.75
2018-02-19T02:39:10.292Z,9.55
2018-02-19T02:39:43.957Z,9.73
2018-02-19T02:40:17.454Z,8.90
2018-02-19T02:40:51.126Z,9.15
2018-02-19T02:41:24.782Z,9.82
2018-02-19T02:41:59.204Z,9.02
2018-02-19T02:42:33.642Z,8.80
2018-02-19T02:43:07.342Z,10.57
2018-02-19T02:43:41.036Z,10.15
2018-02-19T02:44:14.720Z,9.55
2018-02-19T02:44:48.386Z,10.05
2018-02-19T02:45:22.058Z,9.75
2018-02-19T02:45:56.515Z,10.10
2018-02-19T02:46:30.197Z,9.65
2018-02-19T02:47:03.896Z,9.60
2018-02-19T02:47:37.566Z,9.48
2018-02-19T02:48:11.265Z,9.73
2018-02-19T02:48:44.929Z,10.20
2018-02-19T02:49:18.592Z,9.90
2018-02-19T02:49:53.027Z,9.82
2018-02-19T02:50:26.701Z,9.70
2018-02-19T02:51:01.164Z,9.70
2018-02-19T02:51:34.843Z,10.00
2018-02-19T02:52:08.499Z,9.45
2018-02-19T02:52:42.175Z,9.90
2018-02-19T02:53:16.648Z,10.65
2018-02-19T02:53:50.315Z,9.75
2018-02-19T02:54:23.992Z,10.68
2018-02-19T02:54:57.654Z,9.65
2018-02-19T02:55:31.328Z,10.55
2018-02-19T02:56:05.763Z,10.13
2018-02-19T02:56:39.447Z,10.23
2018-02-19T02:57:13.126Z,9.90
2018-02-19T02:57:47.576Z,10.38
2018-02-19T02:58:20.931Z,9.90
2018-02-19T02:58:54.627Z,9.32
2018-02-19T02:59:28.298Z,9.48
2018-02-19T03:00:02.746Z,10.18
2018-02-19T03:00:36.433Z,9.15
2018-02-19T03:01:10.103Z,9.88
2018-02-19T03:01:43.786Z,10.50
2018-02-19T03:02:17.465Z,10.00
2018-02-19T03:02:51.910Z,9.25
2018-02-19T03:03:25.437Z,10.82
2018-02-19T03:03:59.126Z,10.25
2018-02-19T03:04:32.807Z,9.93
2018-02-19T03:05:06.471Z,10.50
2018-02-19T03:05:40.155Z,10.02
2018-02-19T03:06:13.819Z,9.95
2018-02-19T03:06:47.499Z,10.60
2018-02-19T03:07:20.855Z,10.95
2018-02-19T03:07:55.289Z,10.07
2018-02-19T03:08:28.983Z,10.95
2018-02-19T03:09:02.664Z,10.77
2018-02-19T03:09:37.114Z,11.32
2018-02-19T03:10:10.796Z,10.60
2018-02-19T03:10:44.464Z,10.40
2018-02-19T03:11:18.143Z,10.60
2018-02-19T03:11:52.581Z,9.65
2018-02-19T03:12:26.250Z,10.23
2018-02-19T03:12:59.930Z,10.60
2018-02-19T03:13:33.925Z,10.38
2018-02-19T03:14:07.599Z,10.10
2018-02-19T03:14:42.026Z,10.63
2018-02-19T03:15:16.460Z,9.82
2018-02-19T03:15:50.137Z,10.50
2018-02-19T03:16:23.814Z,10.63
2018-02-19T03:16:57.499Z,10.55
2018-02-19T03:17:31.171Z,10.30
2018-02-19T03:18:05.608Z,10.82
2018-02-19T03:18:39.326Z,10.05
2018-02-19T03:19:12.994Z,11.18
2018-02-19T03:19:46.659Z,10.57
2018-02-19T03:20:21.090Z,9.95
2018-02-19T03:20:54.751Z,10.75
2018-02-19T03:21:29.205Z,10.55
2018-02-19T03:22:02.884Z,10.68
2018-02-19T03:22:36.578Z,10.63
2018-02-19T03:23:10.271Z,10.52
2018-02-19T03:23:43.972Z,10.15
2018-02-19T03:24:17.651Z,10.32
2018-02-19T03:24:51.362Z,10.98
2018-02-19T03:25:25.091Z,10.70
2018-02-19T03:25:59.558Z,10.35
2018-02-19T03:26:33.228Z,10.05
2018-02-19T03:27:06.716Z,10.73
2018-02-19T03:27:40.391Z,10.45
2018-02-19T03:28:14.053Z,10.68
2018-02-19T03:28:48.846Z,10.25
2018-02-19T03:29:22.520Z,9.90
2018-02-19T03:29:56.186Z,10.80
2018-02-19T03:30:29.859Z,10.57
2018-02-19T03:31:03.524Z,10.32
2018-02-19T03:31:37.984Z,10.45
2018-02-19T03:32:11.665Z,10.82
2018-02-19T03:32:45.350Z,11.60
2018-02-19T03:33:19.017Z,9.90
2018-02-19T03:33:52.995Z,10.93
2018-02-19T03:34:27.455Z,10.60
2018-02-19T03:35:01.148Z,10.43
2018-02-19T03:35:34.834Z,10.00
2018-02-19T03:36:08.515Z,10.45
2018-02-19T03:36:42.189Z,10.52
2018-02-19T03:37:15.854Z,10.25
2018-02-19T03:37:50.286Z,9.93
2018-02-19T03:38:23.966Z,10.45
2018-02-19T03:38:57.658Z,9.70
2018-02-19T03:39:31.333Z,10.50
2018-02-19T03:40:05.787Z,10.18
2018-02-19T03:40:39.473Z,10.70
2018-02-19T03:41:13.152Z,10.43
2018-02-19T03:41:46.832Z,10.65
2018-02-19T03:42:20.502Z,10.35
2018-02-19T03:42:54.950Z,10.50
2018-02-19T03:43:28.630Z,10.82
2018-02-19T03:44:02.330Z,10.85
2018-02-19T03:44:36.038Z,9.98
2018-02-19T03:45:09.394Z,9.73
2018-02-19T03:45:44.015Z,9.70
2018-02-19T03:46:17.703Z,11.55
2018-02-19T03:46:51.393Z,9.90
2018-02-19T03:47:25.066Z,10.07
2018-02-19T03:47:58.731Z,9.98
2018-02-19T03:48:33.178Z,10.98
2018-02-19T03:49:06.883Z,10.70
2018-02-19T03:49:40.556Z,11.05
2018-02-19T03:50:14.220Z,9.90
2018-02-19T03:50:47.899Z,10.38
2018-02-19T03:51:22.342Z,11.32
2018-02-19T03:51:56.005Z,8.90
2018-02-19T03:52:32.602Z,9.90
2018-02-19T03:53:06.278Z,11.38
2018-02-19T03:53:39.942Z,10.25
2018-02-19T03:54:13.658Z,10.40
2018-02-19T03:54:47.323Z,9.32
2018-02-19T03:55:20.994Z,10.18
2018-02-19T03:55:55.434Z,11.15
2018-02-19T03:56:29.118Z,10.40
2018-02-19T03:57:02.778Z,11.20
2018-02-19T03:57:37.219Z,10.82
2018-02-19T03:58:10.911Z,9.98
2018-02-19T03:58:44.585Z,10.05
2018-02-19T03:59:18.303Z,9.77
2018-02-19T03:59:51.986Z,10.60
2018-02-19T04:00:25.682Z,11.05
2018-02-19T04:00:59.374Z,9.40
2018-02-19T04:01:33.033Z,9.57
2018-02-19T04:02:06.706Z,10.50
2018-02-19T04:02:41.124Z,9.65
2018-02-19T04:03:14.802Z,10.20
2018-02-19T04:03:49.305Z,10.25
2018-02-19T04:04:23.162Z,10.27
2018-02-19T04:04:56.868Z,10.27
2018-02-19T04:05:30.531Z,9.32
2018-02-19T04:06:04.250Z,9.57
2018-02-19T04:06:37.938Z,10.18
2018-02-19T04:07:11.617Z,10.52
2018-02-19T04:07:45.300Z,10.35
2018-02-19T04:08:18.974Z,9.35
2018-02-19T04:08:52.640Z,9.15
2018-02-19T04:09:26.343Z,10.27
2018-02-19T04:09:59.850Z,10.98
2018-02-19T04:10:33.734Z,10.52
2018-02-19T04:11:10.421Z,9.30
2018-02-19T04:11:44.095Z,9.80
2018-02-19T04:12:17.779Z,10.80
2018-02-19T04:12:51.453Z,9.93
2018-02-19T04:13:25.134Z,10.35
2018-02-19T04:13:58.811Z,9.57
2018-02-19T04:14:33.632Z,9.07
2018-02-19T04:15:07.325Z,10.50
2018-02-19T04:15:41.003Z,11.35
2018-02-19T04:16:15.464Z,10.90
2018-02-19T04:16:49.139Z,9.82
2018-02-19T04:17:22.815Z,10.90
2018-02-19T04:17:56.483Z,11.20
2018-02-19T04:18:30.927Z,10.43
2018-02-19T04:19:04.614Z,10.40
2018-02-19T04:19:38.612Z,9.85
2018-02-19T04:20:12.286Z,10.25
2018-02-19T04:20:45.961Z,10.02
2018-02-19T04:21:19.650Z,10.60
2018-02-19T04:21:54.128Z,9.95
2018-02-19T04:22:27.803Z,10.45
2018-02-19T04:23:01.471Z,9.82
2018-02-19T04:23:35.157Z,10.88
2018-02-19T04:24:08.483Z,9.85
2018-02-19T04:24:41.842Z,10.07
2018-02-19T04:25:15.517Z,10.00
2018-02-19T04:25:49.185Z,9.75
2018-02-19T04:26:22.859Z,10.43
2018-02-19T04:26:56.537Z,10.07
2018-02-19T04:27:30.214Z,10.88
2018-02-19T04:28:03.886Z,9.55
2018-02-19T04:28:37.554Z,10.25
2018-02-19T04:29:11.229Z,9.70
2018-02-19T04:29:45.393Z,10.07
2018-02-19T04:30:19.505Z,10.27
2018-02-19T04:30:53.193Z,10.40
2018-02-19T04:31:27.628Z,9.82
2018-02-19T04:32:01.306Z,9.60
2018-02-19T04:32:34.969Z,10.45
2018-02-19T04:33:09.410Z,9.77
2018-02-19T04:33:43.093Z,10.77
2018-02-19T04:34:16.756Z,9.27
2018-02-19T04:34:51.586Z,10.55
2018-02-19T04:35:25.348Z,10.45
2018-02-19T04:35:59.027Z,10.52
2018-02-19T04:36:32.694Z,10.75
2018-02-19T04:37:06.361Z,9.85
2018-02-19T04:37:40.031Z,10.25
2018-02-19T04:38:14.469Z,10.25
2018-02-19T04:38:48.130Z,8.95
2018-02-19T04:39:21.810Z,10.65
2018-02-19T04:39:56.274Z,9.38
2018-02-19T04:40:29.944Z,10.95
2018-02-19T04:41:03.438Z,10.35
2018-02-19T04:41:37.176Z,10.30
2018-02-19T04:42:11.613Z,10.32
2018-02-19T04:42:45.098Z,10.05
2018-02-19T04:43:18.583Z,9.95
2018-02-19T04:43:52.067Z,9.75
2018-02-19T04:44:35.432Z,9.25
2018-02-19T04:46:21.186Z,11.05
2018-02-19T04:47:04.762Z,10.35
2018-02-19T04:47:39.187Z,8.95
2018-02-19T04:48:12.862Z,9.00
2018-02-19T04:48:47.310Z,9.25
2018-02-19T04:49:21.001Z,10.43
2018-02-19T04:49:54.689Z,10.00
2018-02-19T04:50:28.417Z,9.60
2018-02-19T04:51:02.097Z,9.93
2018-02-19T04:51:35.769Z,9.68
2018-02-19T04:52:09.463Z,10.07
2018-02-19T04:52:43.137Z,11.20
2018-02-19T04:53:16.809Z,11.23
2018-02-19T04:53:50.473Z,10.63
2018-02-19T04:54:24.983Z,10.27
2018-02-19T04:54:59.419Z,10.10
2018-02-19T04:55:33.116Z,10.10
2018-02-19T04:56:06.831Z,10.13
2018-02-19T04:56:41.415Z,10.10
2018-02-19T04:57:15.094Z,10.02
2018-02-19T04:57:48.758Z,11.00
2018-02-19T04:58:23.194Z,11.15
2018-02-19T04:58:56.871Z,10.45
2018-02-19T04:59:31.118Z,9.85
2018-02-19T05:00:04.289Z,10.52
2018-02-19T05:00:37.982Z,9.68
2018-02-19T05:01:11.482Z,10.75
2018-02-19T05:01:45.158Z,10.48
2018-02-19T05:02:18.841Z,10.07
2018-02-19T05:02:52.510Z,10.10
2018-02-19T05:03:26.171Z,9.52
2018-02-19T05:04:00.617Z,11.00
2018-02-19T05:04:34.297Z,10.27
2018-02-19T05:05:07.999Z,10.10
2018-02-19T05:05:41.710Z,10.38
2018-02-19T05:06:15.385Z,10.70
2018-02-19T05:06:49.058Z,11.52
2018-02-19T05:07:22.727Z,11.52
2018-02-19T05:07:57.161Z,9.77
2018-02-19T05:08:30.839Z,11.38
2018-02-19T05:09:03.680Z,10.23
2018-02-19T05:09:37.339Z,9.95
2018-02-19T05:10:11.008Z,9.65
2018-02-19T05:10:44.714Z,10.07
2018-02-19T05:11:18.420Z,11.63
2018-02-19T05:11:52.094Z,11.27
2018-02-19T05:12:25.774Z,11.77
2018-02-19T05:12:59.458Z,10.77
2018-02-19T05:13:33.129Z,10.13
2018-02-19T05:14:06.806Z,10.30
2018-02-19T05:14:40.476Z,10.23
2018-02-19T05:15:14.912Z,11.02
2018-02-19T05:15:48.606Z,10.50
2018-02-19T05:16:22.282Z,11.93
2018-02-19T05:16:55.944Z,10.88
2018-02-19T05:17:29.622Z,11.12
2018-02-19T05:18:03.321Z,10.70
2018-02-19T05:18:37.015Z,10.75
2018-02-19T05:19:10.690Z,11.07
2018-02-19T05:19:44.380Z,11.18
2018-02-19T05:20:18.061Z,11.73
2018-02-19T05:20:51.775Z,11.18
2018-02-19T05:21:25.460Z,10.75
2018-02-19T05:21:59.126Z,10.80
2018-02-19T05:22:32.803Z,10.98
2018-02-19T05:23:06.483Z,11.40
2018-02-19T05:23:40.142Z,10.75
2018-02-19T05:24:14.583Z,11.48
2018-02-19T05:24:48.269Z,11.30
2018-02-19T05:25:21.944Z,10.82
2018-02-19T05:25:55.317Z,10.48
2018-02-19T05:26:28.998Z,10.98
2018-02-19T05:27:03.442Z,10.18
2018-02-19T05:27:37.111Z,11.30
2018-02-19T05:28:10.777Z,12.05
2018-02-19T05:28:45.228Z,10.60
2018-02-19T05:29:18.900Z,10.75
2018-02-19T05:29:52.579Z,10.88
2018-02-19T05:30:26.262Z,10.93
2018-02-19T05:31:00.736Z,11.00
2018-02-19T05:31:34.406Z,11.48
2018-02-19T05:32:07.420Z,11.30
2018-02-19T05:32:41.850Z,11.23
2018-02-19T05:33:15.546Z,10.85
2018-02-19T05:33:49.238Z,11.40
2018-02-19T05:34:22.919Z,11.35
2018-02-19T05:34:56.403Z,12.05
2018-02-19T05:35:30.120Z,11.27
2018-02-19T05:36:03.813Z,11.05
2018-02-19T05:36:37.499Z,11.35
2018-02-19T05:37:11.170Z,11.73
2018-02-19T05:37:44.851Z,11.25
2018-02-19T05:38:19.289Z,12.23
2018-02-19T05:38:52.959Z,11.27
2018-02-19T05:39:26.637Z,12.00
2018-02-19T05:40:00.313Z,11.12
2018-02-19T05:40:34.740Z,11.70
2018-02-19T05:41:08.450Z,12.20
2018-02-19T05:41:42.124Z,11.77
2018-02-19T05:42:15.798Z,11.65
2018-02-19T05:42:50.250Z,11.00
2018-02-19T05:43:23.932Z,12.45
2018-02-19T05:43:57.633Z,12.65
2018-02-19T05:44:31.322Z,11.07
2018-02-19T05:45:05.013Z,17.48
2018-02-19T05:45:38.693Z,13.20
2018-02-19T05:46:12.382Z,12.93
2018-02-19T05:46:46.044Z,12.95
2018-02-19T05:47:19.726Z,11.65
2018-02-19T05:47:54.169Z,12.30
2018-02-19T05:48:27.847Z,13.35
2018-02-19T05:49:01.519Z,12.50
2018-02-19T05:49:35.211Z,12.18
2018-02-19T05:50:08.909Z,12.90
2018-02-19T05:50:42.588Z,11.70
2018-02-19T05:51:16.277Z,12.43
2018-02-19T05:51:49.968Z,13.45
2018-02-19T05:52:23.652Z,11.90
2018-02-19T05:52:58.097Z,12.40
2018-02-19T05:53:31.792Z,12.15
2018-02-19T05:54:05.476Z,11.10
2018-02-19T05:54:39.166Z,12.52
2018-02-19T05:55:12.856Z,12.40
2018-02-19T05:55:46.203Z,11.70
2018-02-19T05:56:20.768Z,12.18
2018-02-19T05:56:54.496Z,12.48
2018-02-19T05:57:28.966Z,11.45
2018-02-19T05:58:02.639Z,12.30
2018-02-19T05:58:36.314Z,12.35
2018-02-19T05:59:09.978Z,12.52
2018-02-19T05:59:44.421Z,11.77
2018-02-19T06:00:18.111Z,12.10
2018-02-19T06:00:51.786Z,11.38
2018-02-19T06:01:25.492Z,12.05
2018-02-19T06:01:59.203Z,11.63
2018-02-19T06:02:32.910Z,11.50
2018-02-19T06:03:06.586Z,11.70
2018-02-19T06:03:40.268Z,12.13
2018-02-19T06:04:13.938Z,13.02
2018-02-19T06:04:47.610Z,13.32
2018-02-19T06:05:20.942Z,12.25
2018-02-19T06:05:54.621Z,13.02
2018-02-19T06:06:28.311Z,13.35
2018-02-19T06:07:01.978Z,13.75
2018-02-19T06:07:35.658Z,13.18
2018-02-19T06:08:09.334Z,13.02
2018-02-19T06:08:43.004Z,13.68
2018-02-19T06:09:17.451Z,11.75
2018-02-19T06:09:51.145Z,11.20
2018-02-19T06:10:24.819Z,13.02
2018-02-19T06:10:58.497Z,12.75
2018-02-19T06:11:32.194Z,12.65
2018-02-19T06:12:05.908Z,12.32
2018-02-19T06:12:39.609Z,14.65
2018-02-19T06:13:13.290Z,12.30
2018-02-19T06:13:46.966Z,12.45
2018-02-19T06:14:20.660Z,12.65
2018-02-19T06:14:54.389Z,13.07
2018-02-19T06:15:28.087Z,11.82
2018-02-19T06:16:01.771Z,11.70
2018-02-19T06:16:35.751Z,12.43
2018-02-19T06:17:09.436Z,12.70
2018-02-19T06:17:43.127Z,12.60
2018-02-19T06:18:16.794Z,14.07
2018-02-19T06:18:50.474Z,12.63
2018-02-19T06:19:24.135Z,13.50
2018-02-19T06:19:58.586Z,14.20
2018-02-19T06:20:32.270Z,12.25
2018-02-19T06:21:05.945Z,12.80
2018-02-19T06:21:39.671Z,13.52
2018-02-19T06:22:13.363Z,13.23
2018-02-19T06:22:47.026Z,13.50
2018-02-19T06:23:20.727Z,12.88
2018-02-19T06:23:54.398Z,12.37
2018-02-19T06:24:29.010Z,14.48
2018-02-19T06:25:02.703Z,12.65
2018-02-19T06:25:36.476Z,13.20
2018-02-19T06:26:10.918Z,13.18
2018-02-19T06:26:44.620Z,13.00
2018-02-19T06:27:18.310Z,12.60
2018-02-19T06:27:51.998Z,12.13
2018-02-19T06:28:25.680Z,12.55
2018-02-19T06:28:59.354Z,12.32
2018-02-19T06:29:33.030Z,12.55
2018-02-19T06:30:06.047Z,12.35
2018-02-19T06:30:39.739Z,13.02
2018-02-19T06:31:13.412Z,13.68
2018-02-19T06:31:47.115Z,12.85
2018-02-19T06:32:20.805Z,12.73
2018-02-19T06:32:54.481Z,12.95
2018-02-19T06:33:28.170Z,12.40
2018-02-19T06:34:01.860Z,12.40
2018-02-19T06:34:35.244Z,13.13
2018-02-19T06:35:08.914Z,13.02
2018-02-19T06:35:42.602Z,13.18
2018-02-19T06:36:16.291Z,12.52
2018-02-19T06:36:49.667Z,13.80
2018-02-19T06:37:23.357Z,12.70
2018-02-19T06:37:57.052Z,12.85
2018-02-19T06:38:30.734Z,12.88
2018-02-19T06:39:03.581Z,12.02
2018-02-19T06:39:38.010Z,13.10
2018-02-19T06:40:11.702Z,12.82
2018-02-19T06:40:45.393Z,12.93
2018-02-19T06:41:19.853Z,13.57
2018-02-19T06:41:53.566Z,13.02
2018-02-19T06:42:27.998Z,12.45
2018-02-19T06:43:01.686Z,13.68
2018-02-19T06:43:35.365Z,12.32
2018-02-19T06:44:10.135Z,13.10
2018-02-19T06:44:43.817Z,13.60
2018-02-19T06:45:17.490Z,12.45
2018-02-19T06:45:51.166Z,12.10
2018-02-19T06:46:24.841Z,12.57
2018-02-19T06:46:58.563Z,13.13
2018-02-19T06:47:32.231Z,13.40
2018-02-19T06:48:06.885Z,13.38
2018-02-19T06:48:40.555Z,12.88
2018-02-19T06:49:14.232Z,13.38
2018-02-19T06:49:47.910Z,13.50
2018-02-19T06:50:21.587Z,12.63
2018-02-19T06:50:56.030Z,13.25
2018-02-19T06:51:29.704Z,13.43
2018-02-19T06:52:03.220Z,13.02
2018-02-19T06:52:36.958Z,13.62
2018-02-19T06:53:11.416Z,13.60
2018-02-19T06:53:45.087Z,13.32
2018-02-19T06:54:18.768Z,13.07
2018-02-19T06:54:52.440Z,14.05
2018-02-19T06:55:26.881Z,13.23
2018-02-19T06:56:00.553Z,13.50
2018-02-19T06:56:34.234Z,12.85
2018-02-19T06:57:07.914Z,13.30
2018-02-19T06:57:42.355Z,13.45
2018-02-19T06:58:16.023Z,12.70
2018-02-19T06:58:49.702Z,13.10
2018-02-19T06:59:24.139Z,12.88
2018-02-19T06:59:57.807Z,13.00
2018-02-19T07:00:31.490Z,13.00
2018-02-19T07:01:05.944Z,13.18
2018-02-19T07:01:39.449Z,13.07
2018-02-19T07:02:13.170Z,12.75
2018-02-19T07:02:47.294Z,13.38
2018-02-19T07:03:20.969Z,13.38
2018-02-19T07:03:54.653Z,12.20
2018-02-19T07:04:28.337Z,12.60
2018-02-19T07:05:02.775Z,12.85
2018-02-19T07:05:36.436Z,13.05
2018-02-19T07:06:10.875Z,12.37
2018-02-19T07:06:44.568Z,12.52
2018-02-19T07:07:18.283Z,12.80
2018-02-19T07:07:51.963Z,11.80
2018-02-19T07:08:25.445Z,12.18
2018-02-19T07:08:59.115Z,13.30
2018-02-19T07:09:32.782Z,12.60
2018-02-19T07:10:07.219Z,13.30
2018-02-19T07:10:40.905Z,13.27
2018-02-19T07:11:14.578Z,12.40
2018-02-19T07:11:48.257Z,11.98
2018-02-19T07:12:21.966Z,11.98
2018-02-19T07:12:55.626Z,12.90
2018-02-19T07:13:30.074Z,11.63
2018-02-19T07:14:03.770Z,12.77
2018-02-19T07:14:37.447Z,12.48
2018-02-19T07:15:11.129Z,13.15
2018-02-19T07:15:44.829Z,12.40
2018-02-19T07:16:18.481Z,12.65
2018-02-19T07:16:52.927Z,13.45
2018-02-19T07:17:26.634Z,12.27
2018-02-19T07:18:00.306Z,11.85
2018-02-19T07:18:33.986Z,13.15
2018-02-19T07:19:08.236Z,12.65
2018-02-19T07:19:41.915Z,12.93
2018-02-19T07:20:15.597Z,12.43
2018-02-19T07:20:49.266Z,12.32
2018-02-19T07:21:22.944Z,11.18
2018-02-19T07:21:56.613Z,13.25
2018-02-19T07:22:31.089Z,11.35
2018-02-19T07:23:04.760Z,11.32
2018-02-19T07:23:38.630Z,12.50